sensor_id;sensor_type;location;lat;lon;timestamp;P1;durP1;ratioP1;P2;durP2;ratioP2
59207;SDS011;44977;53.132;6.408;2022-09-09T00:11:51;12.57;;;9.25;;
59207;SDS011;44977;53.132;6.408;2022-09-09T00:16:58;12.38;;;9.73;;
59207;SDS011;44977;53.132;6.408;2022-09-09T00:22:18;12.23;;;9.57;;
59207;SDS011;44977;53.132;6.408;2022-09-09T00:27:31;13.25;;;9.98;;
59207;SDS011;44977;53.132;6.408;2022-09-09T00:32:41;13.43;;;9.65;;
59207;SDS011;44977;53.132;6.408;2022-09-09T00:37:44;12.00;;;8.98;;
59207;SDS011;44977;53.132;6.408;2022-09-09T00:42:47;14.05;;;9.73;;
59207;SDS011;44977;53.132;6.408;2022-09-09T00:48:19;11.65;;;9.02;;
59207;SDS011;44977;53.132;6.408;2022-09-09T00:58:52;11.75;;;8.65;;
59207;SDS011;44977;53.132;6.408;2022-09-09T01:04:19;11.50;;;7.97;;
59207;SDS011;44977;53.132;6.408;2022-09-09T01:09:27;11.15;;;7.40;;
59207;SDS011;44977;53.132;6.408;2022-09-09T01:14:47;12.95;;;7.63;;
59207;SDS011;44977;53.132;6.408;2022-09-09T01:25:20;10.43;;;7.03;;
59207;SDS011;44977;53.132;6.408;2022-09-09T01:30:42;11.00;;;7.00;;
59207;SDS011;44977;53.132;6.408;2022-09-09T01:35:48;10.48;;;7.32;;
59207;SDS011;44977;53.132;6.408;2022-09-09T01:40:54;11.60;;;7.97;;
59207;SDS011;44977;53.132;6.408;2022-09-09T01:45:56;11.05;;;7.93;;
59207;SDS011;44977;53.132;6.408;2022-09-09T01:51:00;13.15;;;8.50;;
59207;SDS011;44977;53.132;6.408;2022-09-09T02:01:53;11.27;;;9.10;;
59207;SDS011;44977;53.132;6.408;2022-09-09T02:12:30;13.07;;;10.05;;
59207;SDS011;44977;53.132;6.408;2022-09-09T02:17:32;13.88;;;10.25;;
59207;SDS011;44977;53.132;6.408;2022-09-09T02:22:37;12.27;;;10.07;;
59207;SDS011;44977;53.132;6.408;2022-09-09T02:27:41;14.50;;;10.90;;
59207;SDS011;44977;53.132;6.408;2022-09-09T02:32:45;14.88;;;10.98;;
59207;SDS011;44977;53.132;6.408;2022-09-09T02:37:48;14.20;;;11.30;;
59207;SDS011;44977;53.132;6.408;2022-09-09T02:42:53;15.55;;;11.07;;
59207;SDS011;44977;53.132;6.408;2022-09-09T02:53:17;14.05;;;10.70;;
59207;SDS011;44977;53.132;6.408;2022-09-09T02:58:21;15.05;;;11.38;;
59207;SDS011;44977;53.132;6.408;2022-09-09T03:03:22;12.80;;;10.07;;
59207;SDS011;44977;53.132;6.408;2022-09-09T03:08:23;14.32;;;10.75;;
59207;SDS011;44977;53.132;6.408;2022-09-09T03:13:24;12.65;;;10.23;;
59207;SDS011;44977;53.132;6.408;2022-09-09T03:18:25;12.90;;;8.85;;
59207;SDS011;44977;53.132;6.408;2022-09-09T03:23:25;11.30;;;9.20;;
59207;SDS011;44977;53.132;6.408;2022-09-09T03:28:26;11.98;;;8.48;;
59207;SDS011;44977;53.132;6.408;2022-09-09T03:33:31;13.50;;;8.63;;
59207;SDS011;44977;53.132;6.408;2022-09-09T03:38:31;12.68;;;8.98;;
59207;SDS011;44977;53.132;6.408;2022-09-09T03:43:32;12.82;;;8.02;;
59207;SDS011;44977;53.132;6.408;2022-09-09T03:48:33;11.50;;;8.32;;
59207;SDS011;44977;53.132;6.408;2022-09-09T03:53:34;12.30;;;7.75;;
59207;SDS011;44977;53.132;6.408;2022-09-09T03:58:36;13.63;;;7.88;;
59207;SDS011;44977;53.132;6.408;2022-09-09T04:03:37;11.30;;;7.20;;
59207;SDS011;44977;53.132;6.408;2022-09-09T04:08:38;10.90;;;6.82;;
59207;SDS011;44977;53.132;6.408;2022-09-09T04:13:40;12.07;;;7.28;;
59207;SDS011;44977;53.132;6.408;2022-09-09T04:18:41;11.55;;;7.07;;
59207;SDS011;44977;53.132;6.408;2022-09-09T04:23:43;9.68;;;6.22;;
59207;SDS011;44977;53.132;6.408;2022-09-09T04:28:43;10.57;;;6.70;;
59207;SDS011;44977;53.132;6.408;2022-09-09T04:33:44;10.05;;;6.43;;
59207;SDS011;44977;53.132;6.408;2022-09-09T04:38:45;9.38;;;6.60;;
59207;SDS011;44977;53.132;6.408;2022-09-09T04:43:46;12.20;;;6.38;;
59207;SDS011;44977;53.132;6.408;2022-09-09T04:48:47;10.55;;;7.30;;
59207;SDS011;44977;53.132;6.408;2022-09-09T04:53:49;10.05;;;6.82;;
59207;SDS011;44977;53.132;6.408;2022-09-09T04:58:51;9.95;;;7.65;;
59207;SDS011;44977;53.132;6.408;2022-09-09T05:03:51;11.20;;;7.35;;
59207;SDS011;44977;53.132;6.408;2022-09-09T05:08:53;11.30;;;7.60;;
59207;SDS011;44977;53.132;6.408;2022-09-09T05:13:54;11.52;;;7.95;;
59207;SDS011;44977;53.132;6.408;2022-09-09T05:18:54;11.07;;;8.15;;
59207;SDS011;44977;53.132;6.408;2022-09-09T05:23:55;11.95;;;8.70;;
59207;SDS011;44977;53.132;6.408;2022-09-09T05:28:56;12.15;;;9.32;;
59207;SDS011;44977;53.132;6.408;2022-09-09T05:33:57;11.23;;;9.00;;
59207;SDS011;44977;53.132;6.408;2022-09-09T05:38:58;12.93;;;8.95;;
59207;SDS011;44977;53.132;6.408;2022-09-09T05:44:00;11.55;;;9.43;;
59207;SDS011;44977;53.132;6.408;2022-09-09T05:49:01;13.55;;;9.65;;
59207;SDS011;44977;53.132;6.408;2022-09-09T05:54:03;15.73;;;11.25;;
59207;SDS011;44977;53.132;6.408;2022-09-09T05:59:03;11.32;;;9.30;;
59207;SDS011;44977;53.132;6.408;2022-09-09T06:04:04;12.63;;;10.15;;
59207;SDS011;44977;53.132;6.408;2022-09-09T06:09:05;12.65;;;9.90;;
59207;SDS011;44977;53.132;6.408;2022-09-09T06:14:09;12.02;;;10.18;;
59207;SDS011;44977;53.132;6.408;2022-09-09T06:19:10;13.57;;;9.73;;
59207;SDS011;44977;53.132;6.408;2022-09-09T06:24:12;12.95;;;9.32;;
59207;SDS011;44977;53.132;6.408;2022-09-09T06:29:17;12.75;;;9.25;;
59207;SDS011;44977;53.132;6.408;2022-09-09T06:34:17;11.98;;;9.18;;
59207;SDS011;44977;53.132;6.408;2022-09-09T06:39:18;11.60;;;8.95;;
59207;SDS011;44977;53.132;6.408;2022-09-09T06:44:19;12.02;;;9.05;;
59207;SDS011;44977;53.132;6.408;2022-09-09T06:49:20;12.25;;;8.65;;
59207;SDS011;44977;53.132;6.408;2022-09-09T06:54:20;12.70;;;8.88;;
59207;SDS011;44977;53.132;6.408;2022-09-09T06:59:22;11.85;;;8.82;;
59207;SDS011;44977;53.132;6.408;2022-09-09T07:04:23;12.95;;;9.00;;
59207;SDS011;44977;53.132;6.408;2022-09-09T07:09:25;11.85;;;8.98;;
59207;SDS011;44977;53.132;6.408;2022-09-09T07:14:27;11.10;;;7.68;;
59207;SDS011;44977;53.132;6.408;2022-09-09T07:19:27;11.15;;;8.27;;
59207;SDS011;44977;53.132;6.408;2022-09-09T07:24:28;10.48;;;7.55;;
59207;SDS011;44977;53.132;6.408;2022-09-09T07:29:30;9.70;;;7.68;;
59207;SDS011;44977;53.132;6.408;2022-09-09T07:34:30;11.02;;;7.78;;
59207;SDS011;44977;53.132;6.408;2022-09-09T07:39:31;9.98;;;7.75;;
59207;SDS011;44977;53.132;6.408;2022-09-09T07:44:32;11.30;;;7.30;;
59207;SDS011;44977;53.132;6.408;2022-09-09T07:49:34;9.88;;;7.03;;
59207;SDS011;44977;53.132;6.408;2022-09-09T07:54:35;11.13;;;7.00;;
59207;SDS011;44977;53.132;6.408;2022-09-09T07:59:36;10.00;;;6.72;;
59207;SDS011;44977;53.132;6.408;2022-09-09T08:04:36;10.95;;;6.85;;
59207;SDS011;44977;53.132;6.408;2022-09-09T08:09:37;10.70;;;6.72;;
59207;SDS011;44977;53.132;6.408;2022-09-09T08:14:38;9.85;;;6.50;;
59207;SDS011;44977;53.132;6.408;2022-09-09T08:19:40;11.30;;;7.00;;
59207;SDS011;44977;53.132;6.408;2022-09-09T08:24:40;11.93;;;6.32;;
59207;SDS011;44977;53.132;6.408;2022-09-09T08:29:41;9.32;;;6.68;;
59207;SDS011;44977;53.132;6.408;2022-09-09T08:34:42;10.63;;;6.28;;
59207;SDS011;44977;53.132;6.408;2022-09-09T08:39:42;9.23;;;5.53;;
59207;SDS011;44977;53.132;6.408;2022-09-09T08:44:50;9.55;;;5.47;;
59207;SDS011;44977;53.132;6.408;2022-09-09T08:55:35;10.00;;;5.53;;
59207;SDS011;44977;53.132;6.408;2022-09-09T09:11:37;10.07;;;4.78;;
59207;SDS011;44977;53.132;6.408;2022-09-09T09:21:44;10.18;;;3.80;;
59207;SDS011;44977;53.132;6.408;2022-09-09T09:32:16;8.10;;;3.45;;
59207;SDS011;44977;53.132;6.408;2022-09-09T09:37:26;11.45;;;4.10;;
59207;SDS011;44977;53.132;6.408;2022-09-09T09:42:31;9.52;;;3.63;;
59207;SDS011;44977;53.132;6.408;2022-09-09T09:47:32;11.55;;;3.53;;
59207;SDS011;44977;53.132;6.408;2022-09-09T09:52:33;9.75;;;3.03;;
59207;SDS011;44977;53.132;6.408;2022-09-09T09:57:35;11.82;;;3.45;;
59207;SDS011;44977;53.132;6.408;2022-09-09T10:02:37;9.32;;;2.97;;
59207;SDS011;44977;53.132;6.408;2022-09-09T10:07:41;7.25;;;2.72;;
59207;SDS011;44977;53.132;6.408;2022-09-09T10:23:35;9.40;;;3.15;;
59207;SDS011;44977;53.132;6.408;2022-09-09T10:29:02;11.05;;;3.53;;
59207;SDS011;44977;53.132;6.408;2022-09-09T10:39:40;8.60;;;2.47;;
59207;SDS011;44977;53.132;6.408;2022-09-09T11:00:20;9.40;;;2.65;;
59207;SDS011;44977;53.132;6.408;2022-09-09T11:05:44;9.30;;;2.60;;
59207;SDS011;44977;53.132;6.408;2022-09-09T11:16:30;7.82;;;2.05;;
59207;SDS011;44977;53.132;6.408;2022-09-09T11:21:50;6.13;;;2.10;;
59207;SDS011;44977;53.132;6.408;2022-09-09T11:26:54;7.57;;;2.03;;
59207;SDS011;44977;53.132;6.408;2022-09-09T11:42:26;7.47;;;2.25;;
59207;SDS011;44977;53.132;6.408;2022-09-09T11:47:27;6.90;;;1.90;;
59207;SDS011;44977;53.132;6.408;2022-09-09T11:52:37;7.75;;;1.90;;
59207;SDS011;44977;53.132;6.408;2022-09-09T11:57:38;8.57;;;2.15;;
59207;SDS011;44977;53.132;6.408;2022-09-09T12:02:47;7.85;;;2.17;;
59207;SDS011;44977;53.132;6.408;2022-09-09T12:07:55;9.02;;;1.95;;
59207;SDS011;44977;53.132;6.408;2022-09-09T12:13:15;7.43;;;2.20;;
59207;SDS011;44977;53.132;6.408;2022-09-09T12:18:24;9.25;;;2.08;;
59207;SDS011;44977;53.132;6.408;2022-09-09T12:28:49;9.20;;;2.40;;
59207;SDS011;44977;53.132;6.408;2022-09-09T12:34:02;8.30;;;2.15;;
59207;SDS011;44977;53.132;6.408;2022-09-09T12:39:30;8.68;;;2.38;;
59207;SDS011;44977;53.132;6.408;2022-09-09T12:44:34;8.30;;;2.58;;
59207;SDS011;44977;53.132;6.408;2022-09-09T12:49:36;6.80;;;2.17;;
59207;SDS011;44977;53.132;6.408;2022-09-09T12:54:42;8.85;;;2.08;;
59207;SDS011;44977;53.132;6.408;2022-09-09T12:59:46;6.95;;;1.63;;
59207;SDS011;44977;53.132;6.408;2022-09-09T13:04:48;5.97;;;1.90;;
59207;SDS011;44977;53.132;6.408;2022-09-09T13:09:50;7.82;;;1.80;;
59207;SDS011;44977;53.132;6.408;2022-09-09T13:14:52;6.78;;;1.73;;
59207;SDS011;44977;53.132;6.408;2022-09-09T13:19:56;8.10;;;1.92;;
59207;SDS011;44977;53.132;6.408;2022-09-09T13:25:02;8.32;;;1.67;;
59207;SDS011;44977;53.132;6.408;2022-09-09T13:35:45;8.40;;;1.90;;
59207;SDS011;44977;53.132;6.408;2022-09-09T13:41:01;7.97;;;1.90;;
59207;SDS011;44977;53.132;6.408;2022-09-09T13:46:06;8.35;;;1.90;;
59207;SDS011;44977;53.132;6.408;2022-09-09T13:51:29;6.97;;;1.80;;
59207;SDS011;44977;53.132;6.408;2022-09-09T13:56:37;6.68;;;1.65;;
59207;SDS011;44977;53.132;6.408;2022-09-09T14:01:39;8.35;;;1.73;;
59207;SDS011;44977;53.132;6.408;2022-09-09T14:06:40;6.53;;;1.80;;
59207;SDS011;44977;53.132;6.408;2022-09-09T14:11:42;6.22;;;1.80;;
59207;SDS011;44977;53.132;6.408;2022-09-09T14:16:43;7.75;;;1.70;;
59207;SDS011;44977;53.132;6.408;2022-09-09T14:21:44;6.10;;;1.40;;
59207;SDS011;44977;53.132;6.408;2022-09-09T14:26:45;6.13;;;1.50;;
59207;SDS011;44977;53.132;6.408;2022-09-09T14:31:45;5.60;;;1.55;;
59207;SDS011;44977;53.132;6.408;2022-09-09T14:36:46;5.78;;;1.80;;
59207;SDS011;44977;53.132;6.408;2022-09-09T14:41:47;4.55;;;1.70;;
59207;SDS011;44977;53.132;6.408;2022-09-09T14:46:48;5.47;;;1.42;;
59207;SDS011;44977;53.132;6.408;2022-09-09T14:51:50;5.50;;;1.58;;
59207;SDS011;44977;53.132;6.408;2022-09-09T14:56:50;6.00;;;1.40;;
59207;SDS011;44977;53.132;6.408;2022-09-09T15:01:51;4.15;;;1.20;;
59207;SDS011;44977;53.132;6.408;2022-09-09T15:06:53;3.53;;;1.15;;
59207;SDS011;44977;53.132;6.408;2022-09-09T15:11:54;6.10;;;1.50;;
59207;SDS011;44977;53.132;6.408;2022-09-09T15:16:55;5.32;;;1.50;;
59207;SDS011;44977;53.132;6.408;2022-09-09T15:21:55;3.65;;;1.10;;
59207;SDS011;44977;53.132;6.408;2022-09-09T15:26:56;5.07;;;1.20;;
59207;SDS011;44977;53.132;6.408;2022-09-09T15:31:57;5.88;;;1.25;;
59207;SDS011;44977;53.132;6.408;2022-09-09T15:36:58;4.95;;;1.20;;
59207;SDS011;44977;53.132;6.408;2022-09-09T15:41:59;4.82;;;1.23;;
59207;SDS011;44977;53.132;6.408;2022-09-09T15:47:00;3.30;;;1.10;;
59207;SDS011;44977;53.132;6.408;2022-09-09T15:52:01;4.47;;;1.20;;
59207;SDS011;44977;53.132;6.408;2022-09-09T15:57:03;3.85;;;1.30;;
59207;SDS011;44977;53.132;6.408;2022-09-09T16:02:05;3.97;;;1.17;;
59207;SDS011;44977;53.132;6.408;2022-09-09T16:07:07;5.32;;;1.50;;
59207;SDS011;44977;53.132;6.408;2022-09-09T16:12:07;4.55;;;1.48;;
59207;SDS011;44977;53.132;6.408;2022-09-09T16:17:11;4.28;;;1.38;;
59207;SDS011;44977;53.132;6.408;2022-09-09T16:22:12;4.70;;;1.73;;
59207;SDS011;44977;53.132;6.408;2022-09-09T16:27:15;5.00;;;1.40;;
59207;SDS011;44977;53.132;6.408;2022-09-09T16:32:15;5.18;;;1.30;;
59207;SDS011;44977;53.132;6.408;2022-09-09T16:37:16;3.95;;;1.20;;
59207;SDS011;44977;53.132;6.408;2022-09-09T16:42:17;4.97;;;1.40;;
59207;SDS011;44977;53.132;6.408;2022-09-09T16:47:18;4.68;;;1.40;;
59207;SDS011;44977;53.132;6.408;2022-09-09T16:52:19;5.32;;;1.50;;
59207;SDS011;44977;53.132;6.408;2022-09-09T16:57:20;4.38;;;1.40;;
59207;SDS011;44977;53.132;6.408;2022-09-09T17:02:20;4.53;;;1.30;;
59207;SDS011;44977;53.132;6.408;2022-09-09T17:07:21;4.55;;;1.48;;
59207;SDS011;44977;53.132;6.408;2022-09-09T17:12:22;4.88;;;1.75;;
59207;SDS011;44977;53.132;6.408;2022-09-09T17:17:23;5.85;;;1.88;;
59207;SDS011;44977;53.132;6.408;2022-09-09T17:22:24;5.38;;;1.73;;
59207;SDS011;44977;53.132;6.408;2022-09-09T17:27:26;5.70;;;2.08;;
59207;SDS011;44977;53.132;6.408;2022-09-09T17:32:27;5.93;;;1.75;;
59207;SDS011;44977;53.132;6.408;2022-09-09T17:37:29;4.88;;;1.70;;
59207;SDS011;44977;53.132;6.408;2022-09-09T17:42:30;4.57;;;1.85;;
59207;SDS011;44977;53.132;6.408;2022-09-09T17:47:34;4.82;;;1.80;;
59207;SDS011;44977;53.132;6.408;2022-09-09T17:52:44;4.05;;;1.63;;
59207;SDS011;44977;53.132;6.408;2022-09-09T17:57:46;3.97;;;1.50;;
59207;SDS011;44977;53.132;6.408;2022-09-09T18:02:47;5.85;;;1.63;;
59207;SDS011;44977;53.132;6.408;2022-09-09T18:07:57;5.40;;;1.73;;
59207;SDS011;44977;53.132;6.408;2022-09-09T18:13:01;4.78;;;1.75;;
59207;SDS011;44977;53.132;6.408;2022-09-09T18:18:02;5.70;;;1.80;;
59207;SDS011;44977;53.132;6.408;2022-09-09T18:23:06;5.28;;;2.00;;
59207;SDS011;44977;53.132;6.408;2022-09-09T18:28:06;4.95;;;1.70;;
59207;SDS011;44977;53.132;6.408;2022-09-09T18:33:08;5.50;;;2.20;;
59207;SDS011;44977;53.132;6.408;2022-09-09T18:38:08;6.18;;;2.35;;
59207;SDS011;44977;53.132;6.408;2022-09-09T18:43:09;6.82;;;2.67;;
59207;SDS011;44977;53.132;6.408;2022-09-09T18:48:11;7.50;;;2.80;;
59207;SDS011;44977;53.132;6.408;2022-09-09T18:53:12;10.02;;;3.65;;
59207;SDS011;44977;53.132;6.408;2022-09-09T18:58:14;9.65;;;3.38;;
59207;SDS011;44977;53.132;6.408;2022-09-09T19:03:15;7.10;;;3.10;;
59207;SDS011;44977;53.132;6.408;2022-09-09T19:08:17;7.20;;;3.03;;
59207;SDS011;44977;53.132;6.408;2022-09-09T19:13:19;7.85;;;3.40;;
59207;SDS011;44977;53.132;6.408;2022-09-09T19:18:20;6.68;;;3.25;;
59207;SDS011;44977;53.132;6.408;2022-09-09T19:23:20;7.88;;;3.33;;
59207;SDS011;44977;53.132;6.408;2022-09-09T19:28:22;7.57;;;3.28;;
59207;SDS011;44977;53.132;6.408;2022-09-09T19:33:23;7.35;;;3.08;;
59207;SDS011;44977;53.132;6.408;2022-09-09T19:38:23;8.45;;;2.78;;
59207;SDS011;44977;53.132;6.408;2022-09-09T19:43:25;7.07;;;2.90;;
59207;SDS011;44977;53.132;6.408;2022-09-09T19:48:26;5.90;;;2.97;;
59207;SDS011;44977;53.132;6.408;2022-09-09T19:53:27;6.68;;;2.90;;
59207;SDS011;44977;53.132;6.408;2022-09-09T19:58:29;7.57;;;3.03;;
59207;SDS011;44977;53.132;6.408;2022-09-09T20:03:33;5.97;;;2.85;;
59207;SDS011;44977;53.132;6.408;2022-09-09T20:08:35;6.60;;;3.30;;
59207;SDS011;44977;53.132;6.408;2022-09-09T20:13:36;6.47;;;3.30;;
59207;SDS011;44977;53.132;6.408;2022-09-09T20:18:39;6.03;;;3.20;;
59207;SDS011;44977;53.132;6.408;2022-09-09T20:23:41;7.55;;;3.33;;
59207;SDS011;44977;53.132;6.408;2022-09-09T20:28:43;6.93;;;3.15;;
59207;SDS011;44977;53.132;6.408;2022-09-09T20:33:44;8.20;;;3.60;;
59207;SDS011;44977;53.132;6.408;2022-09-09T20:38:46;6.55;;;3.92;;
59207;SDS011;44977;53.132;6.408;2022-09-09T20:43:49;8.77;;;4.53;;
59207;SDS011;44977;53.132;6.408;2022-09-09T20:48:52;8.57;;;4.57;;
59207;SDS011;44977;53.132;6.408;2022-09-09T20:53:58;7.95;;;3.92;;
59207;SDS011;44977;53.132;6.408;2022-09-09T20:59:00;7.70;;;3.78;;
59207;SDS011;44977;53.132;6.408;2022-09-09T21:04:01;7.28;;;3.88;;
59207;SDS011;44977;53.132;6.408;2022-09-09T21:09:02;8.10;;;4.70;;
59207;SDS011;44977;53.132;6.408;2022-09-09T21:14:03;8.30;;;4.82;;
59207;SDS011;44977;53.132;6.408;2022-09-09T21:19:04;8.73;;;4.93;;
59207;SDS011;44977;53.132;6.408;2022-09-09T21:24:05;8.85;;;4.97;;
59207;SDS011;44977;53.132;6.408;2022-09-09T21:29:06;8.20;;;4.55;;
59207;SDS011;44977;53.132;6.408;2022-09-09T21:34:07;8.10;;;4.82;;
59207;SDS011;44977;53.132;6.408;2022-09-09T21:39:08;9.98;;;4.88;;
59207;SDS011;44977;53.132;6.408;2022-09-09T21:44:09;8.00;;;4.90;;
59207;SDS011;44977;53.132;6.408;2022-09-09T21:49:11;9.75;;;5.28;;
59207;SDS011;44977;53.132;6.408;2022-09-09T21:54:12;8.40;;;4.75;;
59207;SDS011;44977;53.132;6.408;2022-09-09T21:59:12;9.32;;;5.68;;
59207;SDS011;44977;53.132;6.408;2022-09-09T22:04:13;10.23;;;4.78;;
59207;SDS011;44977;53.132;6.408;2022-09-09T22:09:14;9.77;;;5.47;;
59207;SDS011;44977;53.132;6.408;2022-09-09T22:14:15;8.98;;;5.63;;
59207;SDS011;44977;53.132;6.408;2022-09-09T22:19:16;9.25;;;5.93;;
59207;SDS011;44977;53.132;6.408;2022-09-09T22:24:16;10.13;;;6.90;;
59207;SDS011;44977;53.132;6.408;2022-09-09T22:29:17;11.57;;;7.80;;
59207;SDS011;44977;53.132;6.408;2022-09-09T22:34:18;9.55;;;7.00;;
59207;SDS011;44977;53.132;6.408;2022-09-09T22:39:20;10.75;;;6.60;;
59207;SDS011;44977;53.132;6.408;2022-09-09T22:44:24;10.05;;;7.47;;
59207;SDS011;44977;53.132;6.408;2022-09-09T22:49:25;9.98;;;7.45;;
59207;SDS011;44977;53.132;6.408;2022-09-09T22:54:26;9.75;;;7.50;;
59207;SDS011;44977;53.132;6.408;2022-09-09T22:59:27;10.85;;;8.23;;
59207;SDS011;44977;53.132;6.408;2022-09-09T23:04:28;10.75;;;8.70;;
59207;SDS011;44977;53.132;6.408;2022-09-09T23:09:29;13.38;;;10.23;;
59207;SDS011;44977;53.132;6.408;2022-09-09T23:14:30;10.23;;;9.02;;
59207;SDS011;44977;53.132;6.408;2022-09-09T23:19:32;13.50;;;10.80;;
59207;SDS011;44977;53.132;6.408;2022-09-09T23:24:33;11.43;;;9.77;;
59207;SDS011;44977;53.132;6.408;2022-09-09T23:29:34;11.63;;;9.07;;
59207;SDS011;44977;53.132;6.408;2022-09-09T23:34:35;12.32;;;10.23;;
59207;SDS011;44977;53.132;6.408;2022-09-09T23:39:37;13.20;;;11.25;;
59207;SDS011;44977;53.132;6.408;2022-09-09T23:44:39;15.85;;;11.80;;
59207;SDS011;44977;53.132;6.408;2022-09-09T23:49:40;14.27;;;11.48;;
59207;SDS011;44977;53.132;6.408;2022-09-09T23:54:40;14.70;;;11.88;;
59207;SDS011;44977;53.132;6.408;2022-09-09T23:59:42;14.05;;;12.38;;
